sensor_id;sensor_type;location;lat;lon;timestamp;P1;durP1;ratioP1;P2;durP2;ratioP2
29934;SDS011;19905;53.370;-6.314;2022-10-17T00:01:23;17.27;;;2.42;;
29934;SDS011;19905;53.370;-6.314;2022-10-17T00:03:52;18.98;;;3.10;;
29934;SDS011;19905;53.370;-6.314;2022-10-17T00:06:21;16.27;;;2.08;;
29934;SDS011;19905;53.370;-6.314;2022-10-17T00:08:49;17.40;;;2.47;;
29934;SDS011;19905;53.370;-6.314;2022-10-17T00:11:20;23.08;;;3.10;;
29934;SDS011;19905;53.370;-6.314;2022-10-17T00:13:50;17.98;;;2.83;;
29934;SDS011;19905;53.370;-6.314;2022-10-17T00:16:24;19.65;;;2.90;;
29934;SDS011;19905;53.370;-6.314;2022-10-17T00:18:56;22.15;;;2.63;;
29934;SDS011;19905;53.370;-6.314;2022-10-17T00:21:25;31.05;;;3.42;;
29934;SDS011;19905;53.370;-6.314;2022-10-17T00:23:54;24.65;;;3.30;;
29934;SDS011;19905;53.370;-6.314;2022-10-17T00:26:24;25.92;;;3.13;;
29934;SDS011;19905;53.370;-6.314;2022-10-17T00:28:55;21.00;;;2.38;;
29934;SDS011;19905;53.370;-6.314;2022-10-17T00:31:24;29.38;;;3.25;;
29934;SDS011;19905;53.370;-6.314;2022-10-17T00:33:53;20.75;;;3.30;;
29934;SDS011;19905;53.370;-6.314;2022-10-17T00:36:23;27.02;;;3.28;;
29934;SDS011;19905;53.370;-6.314;2022-10-17T00:38:53;20.67;;;2.88;;
29934;SDS011;19905;53.370;-6.314;2022-10-17T00:41:26;26.25;;;3.03;;
29934;SDS011;19905;53.370;-6.314;2022-10-17T00:44:00;22.98;;;2.53;;
29934;SDS011;19905;53.370;-6.314;2022-10-17T00:46:31;18.83;;;3.30;;
29934;SDS011;19905;53.370;-6.314;2022-10-17T00:49:02;19.17;;;3.15;;
29934;SDS011;19905;53.370;-6.314;2022-10-17T00:51:35;21.83;;;2.83;;
29934;SDS011;19905;53.370;-6.314;2022-10-17T00:54:08;16.60;;;2.33;;
29934;SDS011;19905;53.370;-6.314;2022-10-17T00:56:40;16.88;;;3.03;;
29934;SDS011;19905;53.370;-6.314;2022-10-17T00:59:10;21.77;;;2.78;;
29934;SDS011;19905;53.370;-6.314;2022-10-17T01:01:40;21.05;;;2.85;;
29934;SDS011;19905;53.370;-6.314;2022-10-17T01:04:13;16.98;;;2.67;;
29934;SDS011;19905;53.370;-6.314;2022-10-17T01:06:42;19.80;;;2.72;;
29934;SDS011;19905;53.370;-6.314;2022-10-17T01:09:10;20.55;;;2.90;;
29934;SDS011;19905;53.370;-6.314;2022-10-17T01:11:43;16.60;;;2.60;;
29934;SDS011;19905;53.370;-6.314;2022-10-17T01:14:18;20.23;;;2.75;;
29934;SDS011;19905;53.370;-6.314;2022-10-17T01:16:54;12.85;;;2.40;;
29934;SDS011;19905;53.370;-6.314;2022-10-17T01:19:34;19.95;;;2.70;;
29934;SDS011;19905;53.370;-6.314;2022-10-17T01:22:20;19.67;;;2.92;;
29934;SDS011;19905;53.370;-6.314;2022-10-17T01:24:58;22.95;;;3.20;;
29934;SDS011;19905;53.370;-6.314;2022-10-17T01:27:55;20.88;;;2.80;;
29934;SDS011;19905;53.370;-6.314;2022-10-17T01:33:27;18.23;;;2.90;;
29934;SDS011;19905;53.370;-6.314;2022-10-17T01:36:04;19.15;;;2.97;;
29934;SDS011;19905;53.370;-6.314;2022-10-17T01:38:41;19.42;;;2.67;;
29934;SDS011;19905;53.370;-6.314;2022-10-17T01:41:17;18.75;;;2.63;;
29934;SDS011;19905;53.370;-6.314;2022-10-17T01:43:52;24.17;;;3.20;;
29934;SDS011;19905;53.370;-6.314;2022-10-17T01:46:29;12.52;;;1.85;;
29934;SDS011;19905;53.370;-6.314;2022-10-17T01:49:00;18.65;;;2.80;;
29934;SDS011;19905;53.370;-6.314;2022-10-17T01:51:32;13.95;;;2.65;;
29934;SDS011;19905;53.370;-6.314;2022-10-17T01:54:06;18.23;;;2.80;;
29934;SDS011;19905;53.370;-6.314;2022-10-17T01:56:40;18.92;;;3.00;;
29934;SDS011;19905;53.370;-6.314;2022-10-17T01:59:12;16.58;;;2.88;;
29934;SDS011;19905;53.370;-6.314;2022-10-17T02:01:47;17.30;;;2.50;;
29934;SDS011;19905;53.370;-6.314;2022-10-17T02:04:19;15.25;;;2.65;;
29934;SDS011;19905;53.370;-6.314;2022-10-17T02:06:48;17.17;;;2.58;;
29934;SDS011;19905;53.370;-6.314;2022-10-17T02:09:17;17.90;;;2.40;;
29934;SDS011;19905;53.370;-6.314;2022-10-17T02:11:53;19.83;;;2.97;;
29934;SDS011;19905;53.370;-6.314;2022-10-17T02:14:48;22.17;;;2.90;;
29934;SDS011;19905;53.370;-6.314;2022-10-17T02:17:33;20.67;;;2.65;;
29934;SDS011;19905;53.370;-6.314;2022-10-17T02:20:14;22.40;;;2.92;;
29934;SDS011;19905;53.370;-6.314;2022-10-17T02:22:51;17.17;;;2.70;;
29934;SDS011;19905;53.370;-6.314;2022-10-17T02:25:28;23.92;;;3.45;;
29934;SDS011;19905;53.370;-6.314;2022-10-17T02:28:07;15.23;;;2.15;;
29934;SDS011;19905;53.370;-6.314;2022-10-17T02:30:49;24.23;;;3.13;;
29934;SDS011;19905;53.370;-6.314;2022-10-17T02:33:22;16.00;;;2.83;;
29934;SDS011;19905;53.370;-6.314;2022-10-17T02:35:57;25.90;;;2.65;;
29934;SDS011;19905;53.370;-6.314;2022-10-17T02:38:28;16.55;;;2.58;;
29934;SDS011;19905;53.370;-6.314;2022-10-17T02:40:59;19.73;;;3.17;;
29934;SDS011;19905;53.370;-6.314;2022-10-17T02:43:28;22.90;;;3.13;;
29934;SDS011;19905;53.370;-6.314;2022-10-17T02:45:57;20.75;;;2.90;;
29934;SDS011;19905;53.370;-6.314;2022-10-17T02:48:29;18.67;;;2.65;;
29934;SDS011;19905;53.370;-6.314;2022-10-17T02:51:06;18.77;;;2.63;;
29934;SDS011;19905;53.370;-6.314;2022-10-17T02:53:46;16.75;;;2.80;;
29934;SDS011;19905;53.370;-6.314;2022-10-17T02:56:21;25.10;;;2.75;;
29934;SDS011;19905;53.370;-6.314;2022-10-17T02:58:52;20.60;;;3.13;;
29934;SDS011;19905;53.370;-6.314;2022-10-17T03:01:24;23.05;;;3.58;;
29934;SDS011;19905;53.370;-6.314;2022-10-17T03:04:05;20.15;;;2.80;;
29934;SDS011;19905;53.370;-6.314;2022-10-17T03:06:34;18.30;;;3.33;;
29934;SDS011;19905;53.370;-6.314;2022-10-17T03:09:03;17.30;;;2.67;;
29934;SDS011;19905;53.370;-6.314;2022-10-17T03:11:31;24.20;;;3.17;;
29934;SDS011;19905;53.370;-6.314;2022-10-17T03:14:00;20.38;;;3.20;;
29934;SDS011;19905;53.370;-6.314;2022-10-17T03:16:28;16.45;;;2.42;;
29934;SDS011;19905;53.370;-6.314;2022-10-17T03:18:57;21.27;;;3.08;;
29934;SDS011;19905;53.370;-6.314;2022-10-17T03:21:27;19.98;;;3.10;;
29934;SDS011;19905;53.370;-6.314;2022-10-17T03:23:56;20.63;;;2.47;;
29934;SDS011;19905;53.370;-6.314;2022-10-17T03:26:25;19.73;;;2.90;;
29934;SDS011;19905;53.370;-6.314;2022-10-17T03:28:55;15.77;;;3.03;;
29934;SDS011;19905;53.370;-6.314;2022-10-17T03:31:24;19.63;;;2.97;;
29934;SDS011;19905;53.370;-6.314;2022-10-17T03:33:52;17.73;;;2.78;;
29934;SDS011;19905;53.370;-6.314;2022-10-17T03:36:21;17.33;;;2.85;;
29934;SDS011;19905;53.370;-6.314;2022-10-17T03:38:53;19.67;;;2.88;;
29934;SDS011;19905;53.370;-6.314;2022-10-17T03:41:23;20.10;;;2.80;;
29934;SDS011;19905;53.370;-6.314;2022-10-17T03:43:52;23.63;;;3.25;;
29934;SDS011;19905;53.370;-6.314;2022-10-17T03:46:21;17.05;;;2.53;;
29934;SDS011;19905;53.370;-6.314;2022-10-17T03:48:49;21.00;;;2.97;;
29934;SDS011;19905;53.370;-6.314;2022-10-17T03:51:18;17.98;;;2.38;;
29934;SDS011;19905;53.370;-6.314;2022-10-17T03:53:46;24.42;;;3.50;;
29934;SDS011;19905;53.370;-6.314;2022-10-17T03:56:17;9.90;;;2.55;;
29934;SDS011;19905;53.370;-6.314;2022-10-17T03:58:48;17.02;;;2.88;;
29934;SDS011;19905;53.370;-6.314;2022-10-17T04:01:17;21.75;;;2.88;;
29934;SDS011;19905;53.370;-6.314;2022-10-17T04:03:47;25.50;;;2.90;;
29934;SDS011;19905;53.370;-6.314;2022-10-17T04:06:16;11.18;;;1.95;;
29934;SDS011;19905;53.370;-6.314;2022-10-17T04:08:46;21.70;;;3.55;;
29934;SDS011;19905;53.370;-6.314;2022-10-17T04:11:18;17.05;;;2.97;;
29934;SDS011;19905;53.370;-6.314;2022-10-17T04:13:51;14.93;;;2.63;;
29934;SDS011;19905;53.370;-6.314;2022-10-17T04:16:20;20.35;;;3.08;;
29934;SDS011;19905;53.370;-6.314;2022-10-17T04:18:51;15.25;;;2.80;;
29934;SDS011;19905;53.370;-6.314;2022-10-17T04:21:21;21.27;;;2.90;;
29934;SDS011;19905;53.370;-6.314;2022-10-17T04:23:53;22.33;;;3.40;;
29934;SDS011;19905;53.370;-6.314;2022-10-17T04:26:24;21.58;;;2.90;;
29934;SDS011;19905;53.370;-6.314;2022-10-17T04:28:53;13.98;;;2.55;;
29934;SDS011;19905;53.370;-6.314;2022-10-17T04:31:21;17.05;;;2.88;;
29934;SDS011;19905;53.370;-6.314;2022-10-17T04:33:50;13.25;;;2.47;;
29934;SDS011;19905;53.370;-6.314;2022-10-17T04:36:19;20.38;;;3.08;;
29934;SDS011;19905;53.370;-6.314;2022-10-17T04:38:48;26.80;;;3.33;;
29934;SDS011;19905;53.370;-6.314;2022-10-17T04:41:17;18.08;;;2.65;;
29934;SDS011;19905;53.370;-6.314;2022-10-17T04:43:47;15.05;;;2.33;;
29934;SDS011;19905;53.370;-6.314;2022-10-17T04:46:17;17.85;;;2.67;;
29934;SDS011;19905;53.370;-6.314;2022-10-17T04:48:45;17.70;;;2.40;;
29934;SDS011;19905;53.370;-6.314;2022-10-17T04:51:14;21.67;;;3.08;;
29934;SDS011;19905;53.370;-6.314;2022-10-17T04:53:51;17.45;;;2.83;;
29934;SDS011;19905;53.370;-6.314;2022-10-17T04:56:20;11.15;;;2.05;;
29934;SDS011;19905;53.370;-6.314;2022-10-17T04:58:51;17.13;;;2.50;;
29934;SDS011;19905;53.370;-6.314;2022-10-17T05:01:20;12.43;;;2.55;;
29934;SDS011;19905;53.370;-6.314;2022-10-17T05:03:50;16.67;;;2.60;;
29934;SDS011;19905;53.370;-6.314;2022-10-17T05:06:21;14.60;;;2.28;;
29934;SDS011;19905;53.370;-6.314;2022-10-17T05:08:51;18.40;;;2.33;;
29934;SDS011;19905;53.370;-6.314;2022-10-17T05:11:20;14.15;;;2.65;;
29934;SDS011;19905;53.370;-6.314;2022-10-17T05:13:52;12.93;;;2.35;;
29934;SDS011;19905;53.370;-6.314;2022-10-17T05:16:22;12.52;;;1.77;;
29934;SDS011;19905;53.370;-6.314;2022-10-17T05:18:54;15.23;;;2.33;;
29934;SDS011;19905;53.370;-6.314;2022-10-17T05:21:25;14.45;;;2.60;;
29934;SDS011;19905;53.370;-6.314;2022-10-17T05:23:54;15.23;;;2.30;;
29934;SDS011;19905;53.370;-6.314;2022-10-17T05:26:23;12.48;;;1.75;;
29934;SDS011;19905;53.370;-6.314;2022-10-17T05:28:54;8.10;;;1.85;;
29934;SDS011;19905;53.370;-6.314;2022-10-17T05:31:22;13.73;;;2.38;;
29934;SDS011;19905;53.370;-6.314;2022-10-17T05:33:51;11.30;;;2.10;;
29934;SDS011;19905;53.370;-6.314;2022-10-17T05:36:19;15.35;;;2.20;;
29934;SDS011;19905;53.370;-6.314;2022-10-17T05:38:48;19.40;;;2.50;;
29934;SDS011;19905;53.370;-6.314;2022-10-17T05:41:18;12.77;;;2.00;;
29934;SDS011;19905;53.370;-6.314;2022-10-17T05:43:48;11.60;;;2.05;;
29934;SDS011;19905;53.370;-6.314;2022-10-17T05:46:17;14.32;;;2.28;;
29934;SDS011;19905;53.370;-6.314;2022-10-17T05:48:46;11.63;;;2.22;;
29934;SDS011;19905;53.370;-6.314;2022-10-17T05:51:16;17.38;;;2.10;;
29934;SDS011;19905;53.370;-6.314;2022-10-17T05:53:45;14.13;;;2.13;;
29934;SDS011;19905;53.370;-6.314;2022-10-17T05:56:13;15.73;;;2.22;;
29934;SDS011;19905;53.370;-6.314;2022-10-17T05:58:42;9.02;;;1.20;;
29934;SDS011;19905;53.370;-6.314;2022-10-17T06:01:18;11.95;;;2.20;;
29934;SDS011;19905;53.370;-6.314;2022-10-17T06:03:46;12.13;;;1.90;;
29934;SDS011;19905;53.370;-6.314;2022-10-17T06:06:15;9.07;;;1.55;;
29934;SDS011;19905;53.370;-6.314;2022-10-17T06:08:44;10.73;;;1.80;;
29934;SDS011;19905;53.370;-6.314;2022-10-17T06:11:13;13.35;;;2.38;;
29934;SDS011;19905;53.370;-6.314;2022-10-17T06:13:42;10.60;;;1.42;;
29934;SDS011;19905;53.370;-6.314;2022-10-17T06:16:11;8.30;;;1.35;;
29934;SDS011;19905;53.370;-6.314;2022-10-17T06:18:40;15.25;;;1.83;;
29934;SDS011;19905;53.370;-6.314;2022-10-17T06:21:09;12.38;;;1.45;;
29934;SDS011;19905;53.370;-6.314;2022-10-17T06:23:39;12.65;;;1.75;;
29934;SDS011;19905;53.370;-6.314;2022-10-17T06:26:08;13.00;;;1.90;;
29934;SDS011;19905;53.370;-6.314;2022-10-17T06:28:38;12.02;;;2.33;;
29934;SDS011;19905;53.370;-6.314;2022-10-17T06:31:09;10.55;;;1.80;;
29934;SDS011;19905;53.370;-6.314;2022-10-17T06:33:42;13.35;;;1.67;;
29934;SDS011;19905;53.370;-6.314;2022-10-17T06:36:24;10.40;;;2.00;;
29934;SDS011;19905;53.370;-6.314;2022-10-17T06:39:00;17.70;;;2.33;;
29934;SDS011;19905;53.370;-6.314;2022-10-17T06:41:38;14.43;;;2.10;;
29934;SDS011;19905;53.370;-6.314;2022-10-17T06:44:09;10.75;;;2.30;;
29934;SDS011;19905;53.370;-6.314;2022-10-17T06:46:40;9.80;;;1.77;;
29934;SDS011;19905;53.370;-6.314;2022-10-17T06:49:12;9.30;;;1.85;;
29934;SDS011;19905;53.370;-6.314;2022-10-17T06:54:12;16.90;;;1.80;;
29934;SDS011;19905;53.370;-6.314;2022-10-17T06:56:40;10.20;;;2.10;;
29934;SDS011;19905;53.370;-6.314;2022-10-17T06:59:09;12.55;;;1.75;;
29934;SDS011;19905;53.370;-6.314;2022-10-17T07:01:38;15.38;;;2.10;;
29934;SDS011;19905;53.370;-6.314;2022-10-17T07:04:13;13.07;;;1.83;;
29934;SDS011;19905;53.370;-6.314;2022-10-17T07:06:43;18.15;;;2.55;;
29934;SDS011;19905;53.370;-6.314;2022-10-17T07:09:12;11.05;;;1.77;;
29934;SDS011;19905;53.370;-6.314;2022-10-17T07:11:46;11.02;;;1.90;;
29934;SDS011;19905;53.370;-6.314;2022-10-17T07:14:14;9.90;;;1.63;;
29934;SDS011;19905;53.370;-6.314;2022-10-17T07:16:45;9.27;;;1.63;;
29934;SDS011;19905;53.370;-6.314;2022-10-17T07:19:15;10.85;;;2.05;;
29934;SDS011;19905;53.370;-6.314;2022-10-17T07:21:45;15.70;;;2.00;;
29934;SDS011;19905;53.370;-6.314;2022-10-17T07:24:15;11.75;;;1.40;;
29934;SDS011;19905;53.370;-6.314;2022-10-17T07:26:47;12.68;;;2.10;;
29934;SDS011;19905;53.370;-6.314;2022-10-17T07:31:53;12.40;;;1.98;;
29934;SDS011;19905;53.370;-6.314;2022-10-17T07:34:23;13.88;;;2.38;;
29934;SDS011;19905;53.370;-6.314;2022-10-17T07:36:54;11.32;;;1.83;;
29934;SDS011;19905;53.370;-6.314;2022-10-17T07:39:22;11.48;;;1.50;;
29934;SDS011;19905;53.370;-6.314;2022-10-17T07:41:51;7.38;;;1.50;;
29934;SDS011;19905;53.370;-6.314;2022-10-17T07:44:19;13.82;;;2.20;;
29934;SDS011;19905;53.370;-6.314;2022-10-17T07:46:48;14.18;;;1.80;;
29934;SDS011;19905;53.370;-6.314;2022-10-17T07:49:17;9.25;;;1.90;;
29934;SDS011;19905;53.370;-6.314;2022-10-17T07:51:47;10.00;;;1.77;;
29934;SDS011;19905;53.370;-6.314;2022-10-17T07:54:16;12.25;;;1.92;;
29934;SDS011;19905;53.370;-6.314;2022-10-17T07:56:45;5.03;;;1.05;;
29934;SDS011;19905;53.370;-6.314;2022-10-17T07:59:16;9.57;;;1.58;;
29934;SDS011;19905;53.370;-6.314;2022-10-17T08:01:46;9.50;;;1.90;;
29934;SDS011;19905;53.370;-6.314;2022-10-17T08:04:14;8.80;;;1.83;;
29934;SDS011;19905;53.370;-6.314;2022-10-17T08:06:44;8.05;;;1.50;;
29934;SDS011;19905;53.370;-6.314;2022-10-17T08:09:13;9.50;;;1.85;;
29934;SDS011;19905;53.370;-6.314;2022-10-17T08:11:42;7.38;;;1.77;;
29934;SDS011;19905;53.370;-6.314;2022-10-17T08:14:12;10.13;;;1.60;;
29934;SDS011;19905;53.370;-6.314;2022-10-17T08:16:42;12.32;;;1.60;;
29934;SDS011;19905;53.370;-6.314;2022-10-17T08:19:10;9.27;;;1.73;;
29934;SDS011;19905;53.370;-6.314;2022-10-17T08:21:39;12.30;;;2.08;;
29934;SDS011;19905;53.370;-6.314;2022-10-17T08:24:09;9.35;;;1.50;;
29934;SDS011;19905;53.370;-6.314;2022-10-17T08:26:39;8.32;;;1.50;;
29934;SDS011;19905;53.370;-6.314;2022-10-17T08:29:12;10.30;;;1.85;;
29934;SDS011;19905;53.370;-6.314;2022-10-17T08:31:41;11.23;;;1.83;;
29934;SDS011;19905;53.370;-6.314;2022-10-17T08:34:14;15.93;;;1.67;;
29934;SDS011;19905;53.370;-6.314;2022-10-17T08:36:43;8.27;;;1.52;;
29934;SDS011;19905;53.370;-6.314;2022-10-17T08:39:12;11.18;;;1.40;;
29934;SDS011;19905;53.370;-6.314;2022-10-17T08:41:48;10.38;;;1.75;;
29934;SDS011;19905;53.370;-6.314;2022-10-17T08:44:29;10.18;;;1.92;;
29934;SDS011;19905;53.370;-6.314;2022-10-17T08:47:08;11.65;;;1.75;;
29934;SDS011;19905;53.370;-6.314;2022-10-17T08:49:41;14.15;;;1.80;;
29934;SDS011;19905;53.370;-6.314;2022-10-17T08:52:15;11.95;;;1.65;;
29934;SDS011;19905;53.370;-6.314;2022-10-17T08:54:52;12.90;;;1.98;;
29934;SDS011;19905;53.370;-6.314;2022-10-17T08:57:23;10.13;;;1.77;;
29934;SDS011;19905;53.370;-6.314;2022-10-17T08:59:52;9.50;;;1.60;;
29934;SDS011;19905;53.370;-6.314;2022-10-17T09:02:28;10.52;;;1.65;;
29934;SDS011;19905;53.370;-6.314;2022-10-17T09:05:26;12.52;;;2.42;;
29934;SDS011;19905;53.370;-6.314;2022-10-17T09:08:06;8.70;;;1.95;;
29934;SDS011;19905;53.370;-6.314;2022-10-17T09:10:45;11.30;;;1.50;;
29934;SDS011;19905;53.370;-6.314;2022-10-17T09:13:30;9.77;;;1.80;;
29934;SDS011;19905;53.370;-6.314;2022-10-17T09:16:11;9.25;;;1.38;;
29934;SDS011;19905;53.370;-6.314;2022-10-17T09:18:50;9.13;;;1.42;;
29934;SDS011;19905;53.370;-6.314;2022-10-17T09:21:28;10.13;;;1.42;;
29934;SDS011;19905;53.370;-6.314;2022-10-17T09:24:10;10.15;;;1.70;;
29934;SDS011;19905;53.370;-6.314;2022-10-17T09:26:44;12.55;;;1.75;;
29934;SDS011;19905;53.370;-6.314;2022-10-17T09:29:16;12.63;;;1.90;;
29934;SDS011;19905;53.370;-6.314;2022-10-17T09:31:51;10.82;;;1.67;;
29934;SDS011;19905;53.370;-6.314;2022-10-17T09:34:28;7.45;;;1.23;;
29934;SDS011;19905;53.370;-6.314;2022-10-17T09:36:59;13.38;;;1.80;;
29934;SDS011;19905;53.370;-6.314;2022-10-17T09:39:29;10.95;;;1.58;;
29934;SDS011;19905;53.370;-6.314;2022-10-17T09:41:59;11.45;;;1.73;;
29934;SDS011;19905;53.370;-6.314;2022-10-17T09:44:30;11.88;;;1.80;;
29934;SDS011;19905;53.370;-6.314;2022-10-17T09:47:10;11.45;;;1.52;;
29934;SDS011;19905;53.370;-6.314;2022-10-17T09:49:48;10.75;;;1.63;;
29934;SDS011;19905;53.370;-6.314;2022-10-17T09:52:21;12.13;;;1.70;;
29934;SDS011;19905;53.370;-6.314;2022-10-17T09:54:57;8.90;;;1.73;;
29934;SDS011;19905;53.370;-6.314;2022-10-17T09:57:49;8.35;;;1.55;;
29934;SDS011;19905;53.370;-6.314;2022-10-17T10:00:22;8.80;;;1.45;;
29934;SDS011;19905;53.370;-6.314;2022-10-17T10:03:07;11.07;;;1.50;;
29934;SDS011;19905;53.370;-6.314;2022-10-17T10:05:37;6.63;;;1.33;;
29934;SDS011;19905;53.370;-6.314;2022-10-17T10:08:11;9.75;;;1.40;;
29934;SDS011;19905;53.370;-6.314;2022-10-17T10:10:43;13.18;;;2.08;;
29934;SDS011;19905;53.370;-6.314;2022-10-17T10:13:16;10.93;;;1.95;;
29934;SDS011;19905;53.370;-6.314;2022-10-17T10:15:49;10.73;;;1.60;;
29934;SDS011;19905;53.370;-6.314;2022-10-17T10:18:28;8.05;;;1.40;;
29934;SDS011;19905;53.370;-6.314;2022-10-17T10:21:02;8.52;;;1.92;;
29934;SDS011;19905;53.370;-6.314;2022-10-17T10:23:33;8.25;;;1.55;;
29934;SDS011;19905;53.370;-6.314;2022-10-17T10:26:13;12.88;;;1.60;;
29934;SDS011;19905;53.370;-6.314;2022-10-17T10:28:55;15.02;;;2.42;;
29934;SDS011;19905;53.370;-6.314;2022-10-17T10:31:32;15.48;;;1.98;;
29934;SDS011;19905;53.370;-6.314;2022-10-17T10:34:12;11.43;;;2.28;;
29934;SDS011;19905;53.370;-6.314;2022-10-17T10:36:51;11.50;;;1.58;;
29934;SDS011;19905;53.370;-6.314;2022-10-17T10:39:34;10.95;;;1.48;;
29934;SDS011;19905;53.370;-6.314;2022-10-17T10:42:17;8.80;;;1.50;;
29934;SDS011;19905;53.370;-6.314;2022-10-17T10:44:50;11.05;;;1.70;;
29934;SDS011;19905;53.370;-6.314;2022-10-17T10:47:22;14.30;;;1.80;;
29934;SDS011;19905;53.370;-6.314;2022-10-17T10:50:06;9.55;;;1.70;;
29934;SDS011;19905;53.370;-6.314;2022-10-17T10:52:45;14.43;;;1.50;;
29934;SDS011;19905;53.370;-6.314;2022-10-17T10:55:23;9.60;;;1.80;;
29934;SDS011;19905;53.370;-6.314;2022-10-17T10:57:59;9.95;;;1.80;;
29934;SDS011;19905;53.370;-6.314;2022-10-17T11:00:35;13.30;;;2.05;;
29934;SDS011;19905;53.370;-6.314;2022-10-17T11:03:11;9.63;;;1.67;;
29934;SDS011;19905;53.370;-6.314;2022-10-17T11:05:45;7.03;;;1.50;;
29934;SDS011;19905;53.370;-6.314;2022-10-17T11:08:20;13.52;;;1.70;;
29934;SDS011;19905;53.370;-6.314;2022-10-17T11:11:04;11.93;;;2.15;;
29934;SDS011;19905;53.370;-6.314;2022-10-17T11:13:44;6.07;;;1.40;;
29934;SDS011;19905;53.370;-6.314;2022-10-17T11:16:23;11.23;;;1.70;;
29934;SDS011;19905;53.370;-6.314;2022-10-17T11:19:04;10.75;;;1.75;;
29934;SDS011;19905;53.370;-6.314;2022-10-17T11:21:42;10.68;;;2.00;;
29934;SDS011;19905;53.370;-6.314;2022-10-17T11:24:17;6.85;;;1.33;;
29934;SDS011;19905;53.370;-6.314;2022-10-17T11:26:53;11.20;;;1.65;;
29934;SDS011;19905;53.370;-6.314;2022-10-17T11:29:26;8.90;;;1.67;;
29934;SDS011;19905;53.370;-6.314;2022-10-17T11:31:57;11.52;;;1.58;;
29934;SDS011;19905;53.370;-6.314;2022-10-17T11:34:32;13.77;;;1.65;;
29934;SDS011;19905;53.370;-6.314;2022-10-17T11:37:08;11.35;;;1.65;;
29934;SDS011;19905;53.370;-6.314;2022-10-17T11:39:44;11.27;;;1.60;;
29934;SDS011;19905;53.370;-6.314;2022-10-17T11:42:18;10.68;;;1.70;;
29934;SDS011;19905;53.370;-6.314;2022-10-17T11:44:53;8.88;;;1.80;;
29934;SDS011;19905;53.370;-6.314;2022-10-17T11:47:30;10.48;;;1.20;;
29934;SDS011;19905;53.370;-6.314;2022-10-17T11:50:11;7.50;;;1.67;;
29934;SDS011;19905;53.370;-6.314;2022-10-17T11:53:08;10.25;;;1.60;;
29934;SDS011;19905;53.370;-6.314;2022-10-17T11:55:40;10.77;;;1.50;;
29934;SDS011;19905;53.370;-6.314;2022-10-17T11:58:14;9.82;;;1.50;;
29934;SDS011;19905;53.370;-6.314;2022-10-17T12:00:54;5.32;;;1.00;;
29934;SDS011;19905;53.370;-6.314;2022-10-17T12:03:35;8.32;;;1.77;;
29934;SDS011;19905;53.370;-6.314;2022-10-17T12:06:16;5.72;;;1.27;;
29934;SDS011;19905;53.370;-6.314;2022-10-17T12:09:06;10.40;;;1.42;;
29934;SDS011;19905;53.370;-6.314;2022-10-17T12:11:44;10.00;;;1.50;;
29934;SDS011;19905;53.370;-6.314;2022-10-17T12:17:22;8.82;;;1.20;;
29934;SDS011;19905;53.370;-6.314;2022-10-17T12:23:25;8.65;;;1.50;;
29934;SDS011;19905;53.370;-6.314;2022-10-17T12:25:57;12.23;;;1.20;;
29934;SDS011;19905;53.370;-6.314;2022-10-17T12:28:30;8.05;;;1.10;;
29934;SDS011;19905;53.370;-6.314;2022-10-17T12:31:01;11.45;;;1.60;;
29934;SDS011;19905;53.370;-6.314;2022-10-17T12:33:34;7.60;;;1.50;;
29934;SDS011;19905;53.370;-6.314;2022-10-17T12:42:32;10.07;;;1.45;;
29934;SDS011;19905;53.370;-6.314;2022-10-17T12:51:17;8.95;;;1.30;;
29934;SDS011;19905;53.370;-6.314;2022-10-17T12:54:07;8.38;;;1.35;;
29934;SDS011;19905;53.370;-6.314;2022-10-17T12:56:40;9.98;;;1.30;;
29934;SDS011;19905;53.370;-6.314;2022-10-17T12:59:13;6.70;;;1.20;;
29934;SDS011;19905;53.370;-6.314;2022-10-17T13:01:45;11.50;;;1.20;;
29934;SDS011;19905;53.370;-6.314;2022-10-17T13:04:16;7.50;;;1.02;;
29934;SDS011;19905;53.370;-6.314;2022-10-17T13:06:46;10.70;;;1.60;;
29934;SDS011;19905;53.370;-6.314;2022-10-17T13:09:17;6.47;;;1.25;;
29934;SDS011;19905;53.370;-6.314;2022-10-17T13:11:51;11.85;;;1.40;;
29934;SDS011;19905;53.370;-6.314;2022-10-17T13:14:22;7.00;;;1.10;;
29934;SDS011;19905;53.370;-6.314;2022-10-17T13:16:53;5.97;;;1.23;;
29934;SDS011;19905;53.370;-6.314;2022-10-17T13:19:28;5.90;;;1.10;;
29934;SDS011;19905;53.370;-6.314;2022-10-17T13:22:01;9.18;;;1.35;;
29934;SDS011;19905;53.370;-6.314;2022-10-17T13:24:34;6.00;;;1.13;;
29934;SDS011;19905;53.370;-6.314;2022-10-17T13:27:06;5.90;;;1.10;;
29934;SDS011;19905;53.370;-6.314;2022-10-17T13:29:52;6.90;;;1.25;;
29934;SDS011;19905;53.370;-6.314;2022-10-17T13:32:23;5.88;;;1.10;;
29934;SDS011;19905;53.370;-6.314;2022-10-17T13:35:03;8.27;;;1.30;;
29934;SDS011;19905;53.370;-6.314;2022-10-17T13:37:35;6.25;;;1.33;;
29934;SDS011;19905;53.370;-6.314;2022-10-17T13:40:06;5.55;;;1.10;;
29934;SDS011;19905;53.370;-6.314;2022-10-17T13:43:04;9.40;;;1.45;;
29934;SDS011;19905;53.370;-6.314;2022-10-17T13:45:46;9.75;;;1.35;;
29934;SDS011;19905;53.370;-6.314;2022-10-17T13:48:18;8.00;;;1.50;;
29934;SDS011;19905;53.370;-6.314;2022-10-17T13:50:50;5.85;;;1.10;;
29934;SDS011;19905;53.370;-6.314;2022-10-17T13:53:26;6.25;;;1.40;;
29934;SDS011;19905;53.370;-6.314;2022-10-17T13:55:59;6.40;;;1.20;;
29934;SDS011;19905;53.370;-6.314;2022-10-17T13:58:50;11.25;;;1.65;;
29934;SDS011;19905;53.370;-6.314;2022-10-17T14:01:26;6.43;;;1.30;;
29934;SDS011;19905;53.370;-6.314;2022-10-17T14:03:57;8.60;;;1.40;;
29934;SDS011;19905;53.370;-6.314;2022-10-17T14:06:40;6.45;;;0.98;;
29934;SDS011;19905;53.370;-6.314;2022-10-17T14:09:17;6.45;;;1.50;;
29934;SDS011;19905;53.370;-6.314;2022-10-17T14:11:57;9.82;;;1.08;;
29934;SDS011;19905;53.370;-6.314;2022-10-17T14:14:31;6.85;;;1.38;;
29934;SDS011;19905;53.370;-6.314;2022-10-17T14:17:22;8.77;;;1.30;;
29934;SDS011;19905;53.370;-6.314;2022-10-17T14:19:54;6.57;;;0.90;;
29934;SDS011;19905;53.370;-6.314;2022-10-17T14:22:44;7.13;;;1.10;;
29934;SDS011;19905;53.370;-6.314;2022-10-17T14:25:36;6.25;;;1.00;;
29934;SDS011;19905;53.370;-6.314;2022-10-17T14:28:11;10.80;;;1.13;;
29934;SDS011;19905;53.370;-6.314;2022-10-17T14:30:44;7.53;;;1.02;;
29934;SDS011;19905;53.370;-6.314;2022-10-17T14:33:25;6.80;;;1.40;;
29934;SDS011;19905;53.370;-6.314;2022-10-17T14:35:56;6.68;;;1.30;;
29934;SDS011;19905;53.370;-6.314;2022-10-17T14:38:27;6.75;;;1.15;;
29934;SDS011;19905;53.370;-6.314;2022-10-17T14:40:58;7.78;;;1.20;;
29934;SDS011;19905;53.370;-6.314;2022-10-17T14:43:51;6.40;;;1.33;;
29934;SDS011;19905;53.370;-6.314;2022-10-17T14:46:26;7.70;;;1.42;;
29934;SDS011;19905;53.370;-6.314;2022-10-17T14:49:07;6.80;;;1.05;;
29934;SDS011;19905;53.370;-6.314;2022-10-17T14:52:09;5.75;;;1.25;;
29934;SDS011;19905;53.370;-6.314;2022-10-17T14:54:55;3.53;;;0.82;;
29934;SDS011;19905;53.370;-6.314;2022-10-17T14:57:27;8.88;;;1.50;;
29934;SDS011;19905;53.370;-6.314;2022-10-17T15:00:12;7.20;;;1.45;;
29934;SDS011;19905;53.370;-6.314;2022-10-17T15:02:42;7.32;;;1.10;;
29934;SDS011;19905;53.370;-6.314;2022-10-17T15:05:14;8.23;;;1.50;;
29934;SDS011;19905;53.370;-6.314;2022-10-17T15:07:45;6.55;;;1.30;;
29934;SDS011;19905;53.370;-6.314;2022-10-17T15:13:02;5.05;;;1.15;;
29934;SDS011;19905;53.370;-6.314;2022-10-17T15:15:51;7.05;;;1.10;;
29934;SDS011;19905;53.370;-6.314;2022-10-17T15:18:19;6.28;;;1.13;;
29934;SDS011;19905;53.370;-6.314;2022-10-17T15:20:50;4.57;;;1.20;;
29934;SDS011;19905;53.370;-6.314;2022-10-17T15:23:32;8.00;;;1.33;;
29934;SDS011;19905;53.370;-6.314;2022-10-17T15:26:01;5.22;;;1.08;;
29934;SDS011;19905;53.370;-6.314;2022-10-17T15:28:31;8.02;;;1.33;;
29934;SDS011;19905;53.370;-6.314;2022-10-17T15:31:01;7.13;;;1.10;;
29934;SDS011;19905;53.370;-6.314;2022-10-17T15:33:30;4.47;;;1.10;;